Miami, FL

9:46 AM EDT on September 04, 2015 (GMT -0400)
Miami International | | Change Station
CLOSE
Current Station
Airport
Location: Miami,
Elevation: 13 ft
Nearby Weather Stations

Elev 13 ft 25.79 °N, 80.32 °W | Updated 53 minutes ago

Partly Cloudy
Partly Cloudy
84 °F
Feels Like 92 °F
N
5
Wind Variable Wind from WNW

Today
High -- | Low -- °F
--% Chance of Precip.
Yesterday
High -- | Low -- °F
Precip. -- in
7:02 AM 7:37 PM
Waning Gibbous, 59% visible
Pressure 29.99 in
Visibility 10.0 miles
Clouds Few 2000 ft
Few 18000 ft
Scattered Clouds 25000 ft
Heat Index 92 °F
Dew Point 75 °F
Humidity 74%
Rainfall 0.00 in
Snow Depth Not available.
UV 2 out of 12
Pollen 3.50 out of 12
Air Quality Not available.
Flu Activity Not available.
METAR KMIA 041253Z 30004KT 10SM FEW020 FEW180 SCT250 29/24 A2998 RMK AO2 SLP153 CB DSNT S-SW T02890239
Pressure 29.99 in
Visibility 10.0 miles
Clouds Few 2000 ft
Few 18000 ft
Scattered Clouds 25000 ft
Heat Index 92 °F
Dew Point 75 °F
Humidity 74%
Rainfall 0.00 in
Snow Depth Not available.
UV 2 out of 12
Pollen 3.50 out of 12
Air Quality Not available.
Flu Activity Not available.
METAR KMIA 041253Z 30004KT 10SM FEW020 FEW180 SCT250 29/24 A2998 RMK AO2 SLP153 CB DSNT S-SW T02890239

10-Day Weather Forecast

×

Almanac

Astronomy

Sep. 04, 2015 Rise Set
Actual Time
Civil Twilight
Nautical Twilight
Astronomical Twilight
Moon
Length of Visible Light
Length of Day
Tomorrow will be .
, % of the Moon is Illuminated

Today's Extremes

State Highs State Lows

Community

WunderPhotos

Upload Photos

1,852,181 photos uploaded!

WunderBlogs® & News

Nearby

Air Quality

  Air Quality AQ Index Pollutant
Not available.

Snow Depth

Station Depth Elevation

Earthquake Activity

City Distance Mag. Time & Date
Minimum magnitude displayed is 2.5.

Coastal Water Temperatures

Place Temperature

Stations

Nearby Weather Stations

Station Location Temp. Windchill Dew Point Humidity Wind Precip. Elev Updated Type